Time;durP1;ratioP1;P1;durP2;ratioP2;P2;SDS_P1;SDS_P2;PMS_P1;PMS_P2;Temp;Humidity;BMP_temperature;BMP_pressure;BME280_temperature;BME280_humidity;BME280_pressure;Samples;Min_cycle;Max_cycle;Signal;HPM_P1;HPM_P2
2023/04/27 00:02:24;;;;;;;9.68;4.38;;;11.20;99.90;;;;;;5080605;28;19915;-80
2023/04/27 00:04:50;;;;;;;11.73;5.00;;;11.20;99.90;;;;;;5072151;28;20125;-81
2023/04/27 00:07:16;;;;;;;13.13;4.37;;;11.10;99.90;;;;;;5079220;28;20150;-80
2023/04/27 00:09:41;;;;;;;8.80;4.40;;;11.00;99.90;;;;;;5075047;28;20789;-81
2023/04/27 00:12:07;;;;;;;12.13;5.20;;;11.10;99.90;;;;;;5075379;28;20078;-80
2023/04/27 00:14:32;;;;;;;13.00;5.03;;;11.10;99.90;;;;;;5083868;28;20028;-81
2023/04/27 00:16:58;;;;;;;8.83;4.90;;;11.00;99.90;;;;;;5056457;28;20924;-81
2023/04/27 00:19:24;;;;;;;9.67;4.20;;;11.00;99.90;;;;;;5073353;28;20115;-80
2023/04/27 00:21:49;;;;;;;9.27;4.50;;;11.00;99.90;;;;;;5086147;28;20020;-80
2023/04/27 00:24:15;;;;;;;10.40;3.93;;;11.00;99.90;;;;;;5097722;28;20084;-79
2023/04/27 00:26:41;;;;;;;12.13;4.50;;;11.00;99.90;;;;;;5077803;28;20052;-79
2023/04/27 00:29:06;;;;;;;13.90;5.53;;;10.90;99.90;;;;;;5057632;28;20067;-78
2023/04/27 00:31:32;;;;;;;12.87;5.00;;;11.00;99.90;;;;;;5067764;28;20555;-78
2023/04/27 00:33:57;;;;;;;8.30;4.70;;;11.00;99.90;;;;;;5070097;28;20385;-80
2023/04/27 00:36:23;;;;;;;11.80;5.13;;;11.00;99.90;;;;;;5075983;28;20063;-80
2023/04/27 00:38:48;;;;;;;13.83;4.93;;;11.00;99.90;;;;;;5081816;28;20434;-80
2023/04/27 00:41:14;;;;;;;13.80;4.77;;;10.90;99.90;;;;;;5073288;28;20037;-79
2023/04/27 00:43:44;;;;;;;12.70;5.17;;;10.80;99.90;;;;;;5055624;28;20417;-79
2023/04/27 00:46:13;;;;;;;15.23;4.85;;;10.80;99.90;;;;;;5070423;28;20060;-79
2023/04/27 00:48:40;;;;;;;15.13;5.38;;;10.80;99.90;;;;;;5074171;28;20027;-80
2023/04/27 00:51:06;;;;;;;;;;;10.80;99.90;;;;;;5070200;28;20032;-80
2023/04/27 00:53:31;;;;;;;14.70;4.70;;;10.80;99.90;;;;;;5078390;28;19912;-78
2023/04/27 00:55:57;;;;;;;14.10;4.45;;;10.80;99.90;;;;;;5078068;28;20036;-78
2023/04/27 00:58:23;;;;;;;7.75;4.70;;;10.80;99.90;;;;;;5073480;28;20170;-78
2023/04/27 01:00:49;;;;;;;7.80;4.60;;;10.80;99.90;;;;;;5065403;28;20025;-78
2023/04/27 01:03:16;;;;;;;6.63;4.15;;;10.70;99.90;;;;;;5069818;28;20047;-79
2023/04/27 01:05:42;;;;;;;9.32;4.20;;;10.70;99.90;;;;;;5070642;28;20041;-78
2023/04/27 01:08:08;;;;;;;12.25;5.03;;;10.80;99.90;;;;;;5060071;28;20036;-78
2023/04/27 01:10:34;;;;;;;8.00;4.53;;;10.80;99.90;;;;;;5071717;28;20400;-80
2023/04/27 01:13:00;;;;;;;7.75;4.10;;;10.80;99.90;;;;;;5070269;28;20536;-78
2023/04/27 01:15:26;;;;;;;13.00;4.80;;;10.90;99.90;;;;;;5071691;28;20035;-78
2023/04/27 01:18:01;;;;;;;12.80;4.57;;;10.90;99.90;;;;;;5068632;28;20035;-79
2023/04/27 01:20:30;;;;;;;11.70;5.05;;;11.00;99.90;;;;;;5073842;28;20074;-80
2023/04/27 01:22:57;;;;;;;14.57;4.30;;;11.10;99.90;;;;;;5074694;28;20032;-78
2023/04/27 01:25:23;;;;;;;12.20;4.70;;;11.00;99.90;;;;;;5075635;28;20044;-78
2023/04/27 01:27:48;;;;;;;14.18;4.90;;;11.00;99.90;;;;;;5078391;28;20843;-78
2023/04/27 01:30:14;;;;;;;10.80;4.33;;;10.90;99.90;;;;;;5078695;28;20437;-77
2023/04/27 01:32:40;;;;;;;7.30;4.83;;;11.00;99.90;;;;;;5075978;28;20035;-77
2023/04/27 01:35:06;;;;;;;6.87;4.50;;;11.00;99.90;;;;;;5071524;28;20039;-77
2023/04/27 01:37:32;;;;;;;8.23;4.28;;;11.00;99.90;;;;;;5072327;28;20028;-79
2023/04/27 01:39:57;;;;;;;8.10;4.93;;;10.90;99.90;;;;;;5072248;28;20445;-80
2023/04/27 01:42:23;;;;;;;10.17;5.17;;;11.00;99.90;;;;;;5073991;28;20576;-79
2023/04/27 01:44:49;;;;;;;15.03;4.77;;;11.00;99.90;;;;;;5056058;28;20043;-79
2023/04/27 01:47:16;;;;;;;9.70;4.67;;;10.90;99.90;;;;;;5056746;28;20408;-78
2023/04/27 01:49:42;;;;;;;9.80;4.55;;;10.90;99.90;;;;;;5070400;28;20025;-78
2023/04/27 01:52:07;;;;;;;11.75;5.40;;;10.90;99.90;;;;;;5068531;28;20546;-79
2023/04/27 01:54:33;;;;;;;11.17;5.67;;;10.90;99.90;;;;;;5073123;28;20043;-80
2023/04/27 01:57:00;;;;;;;11.65;5.45;;;10.90;99.90;;;;;;5056998;28;20297;-79
2023/04/27 01:59:26;;;;;;;12.30;5.13;;;10.90;99.90;;;;;;5072554;28;20059;-78
2023/04/27 02:01:52;;;;;;;9.93;5.00;;;10.90;99.90;;;;;;5059022;28;20036;-79
2023/04/27 02:04:18;;;;;;;10.90;5.15;;;11.00;99.90;;;;;;5085319;28;20024;-79
2023/04/27 02:06:44;;;;;;;12.53;4.97;;;10.90;99.90;;;;;;5093469;28;20016;-77
2023/04/27 02:09:10;;;;;;;10.33;4.83;;;10.90;99.90;;;;;;5074203;28;20259;-79
2023/04/27 02:11:35;;;;;;;10.67;4.83;;;10.90;99.90;;;;;;5051151;28;20492;-78
2023/04/27 02:14:01;;;;;;;10.17;4.87;;;10.90;99.90;;;;;;5073608;28;20032;-79
2023/04/27 02:16:27;;;;;;;14.43;4.63;;;10.90;99.90;;;;;;5075252;28;20078;-78
2023/04/27 02:18:53;;;;;;;8.90;5.10;;;11.00;99.90;;;;;;5069205;28;20031;-79
2023/04/27 02:21:19;;;;;;;8.63;4.80;;;10.90;99.90;;;;;;5074283;28;20044;-79
2023/04/27 02:23:45;;;;;;;12.38;5.75;;;10.90;99.90;;;;;;5074782;28;20432;-78
2023/04/27 02:26:19;;;;;;;13.03;5.00;;;10.80;99.90;;;;;;5074535;28;20051;-78
2023/04/27 02:28:46;;;;;;;8.60;5.00;;;10.70;99.90;;;;;;5065030;28;20077;-79
2023/04/27 02:31:13;;;;;;;12.52;5.03;;;10.70;99.90;;;;;;5069288;28;20045;-78
2023/04/27 02:33:40;;;;;;;8.93;4.95;;;10.70;99.90;;;;;;5067574;28;20040;-80
2023/04/27 02:36:07;;;;;;;13.90;4.70;;;10.70;99.90;;;;;;5072455;28;20044;-78
2023/04/27 02:38:33;;;;;;;15.63;5.10;;;10.70;99.90;;;;;;5072180;28;20023;-77
2023/04/27 02:40:58;;;;;;;9.73;5.40;;;10.70;99.90;;;;;;5051736;28;20040;-78
2023/04/27 02:43:24;;;;;;;10.20;4.73;;;10.80;99.90;;;;;;5075496;28;20028;-77
2023/04/27 02:45:49;;;;;;;7.37;4.73;;;10.80;99.90;;;;;;5070339;28;20491;-78
2023/04/27 02:48:15;;;;;;;9.83;6.13;;;10.80;99.90;;;;;;5068545;28;20036;-78
2023/04/27 02:50:42;;;;;;;7.07;4.27;;;10.80;99.90;;;;;;5069429;28;20086;-78
2023/04/27 02:53:08;;;;;;;8.07;4.82;;;10.80;99.90;;;;;;5046374;28;20119;-77
2023/04/27 02:55:34;;;;;;;7.93;4.72;;;10.70;99.90;;;;;;5070770;28;20024;-78
2023/04/27 02:57:59;;;;;;;7.80;5.00;;;10.70;99.90;;;;;;5074616;28;20028;-79
2023/04/27 03:00:25;;;;;;;11.00;4.40;;;10.70;99.90;;;;;;5072511;28;20039;-78
2023/04/27 03:02:51;;;;;;;8.50;4.75;;;10.60;99.90;;;;;;5073409;28;20028;-78
2023/04/27 03:05:17;;;;;;;8.38;4.65;;;10.50;99.90;;;;;;5070505;28;20084;-78
2023/04/27 03:07:43;;;;;;;11.98;5.00;;;10.50;99.90;;;;;;5073432;28;20032;-79
2023/04/27 03:10:09;;;;;;;12.83;4.87;;;10.40;99.90;;;;;;5073323;28;20047;-78
2023/04/27 03:12:34;;;;;;;8.57;4.78;;;10.30;99.90;;;;;;5076416;28;20020;-78
2023/04/27 03:15:00;;;;;;;12.37;4.97;;;10.30;99.90;;;;;;5068519;28;20062;-79
2023/04/27 03:17:26;;;;;;;9.20;4.83;;;10.30;99.90;;;;;;5072168;28;20032;-78
2023/04/27 03:19:52;;;;;;;6.53;4.78;;;10.20;99.90;;;;;;5072810;28;20027;-78
2023/04/27 03:22:17;;;;;;;8.00;5.33;;;10.20;99.90;;;;;;5050233;28;20523;-78
2023/04/27 03:24:43;;;;;;;10.00;4.10;;;10.20;99.90;;;;;;5069669;28;20336;-79
2023/04/27 03:27:09;;;;;;;14.00;6.43;;;10.20;99.90;;;;;;5074115;28;20625;-78
2023/04/27 03:29:35;;;;;;;15.33;6.50;;;10.10;99.90;;;;;;5066688;28;20157;-78
2023/04/27 03:32:02;;;;;;;11.33;5.93;;;10.00;99.90;;;;;;5049559;28;20464;-82
2023/04/27 03:34:28;;;;;;;10.70;5.60;;;10.10;99.90;;;;;;5073500;28;20029;-80
2023/04/27 03:36:54;;;;;;;14.90;5.10;;;10.00;99.90;;;;;;5073652;28;20048;-78
2023/04/27 03:39:19;;;;;;;15.80;5.50;;;9.90;99.90;;;;;;5079088;28;20032;-79
2023/04/27 03:41:45;;;;;;;18.37;5.53;;;9.90;99.90;;;;;;5077553;28;20035;-77
2023/04/27 03:44:11;;;;;;;8.27;4.30;;;9.90;99.90;;;;;;5075428;28;20039;-77
2023/04/27 03:46:37;;;;;;;16.10;5.13;;;9.90;99.90;;;;;;5085061;28;20302;-79
2023/04/27 03:49:02;;;;;;;11.83;4.77;;;9.80;99.90;;;;;;5100189;28;20029;-77
2023/04/27 03:51:31;;;;;;;9.33;4.70;;;9.80;99.90;;;;;;5081064;28;20036;-78
2023/04/27 03:53:56;;;;;;;12.63;5.03;;;9.90;99.90;;;;;;5080588;28;20051;-78
2023/04/27 03:56:22;;;;;;;9.97;4.73;;;9.90;99.90;;;;;;5069847;28;20064;-79
2023/04/27 03:58:47;;;;;;;11.03;5.47;;;9.90;99.90;;;;;;5078084;28;20507;-79
2023/04/27 04:01:13;;;;;;;8.70;4.47;;;9.80;99.90;;;;;;5061486;28;20024;-78
2023/04/27 04:03:39;;;;;;;9.40;5.10;;;9.70;99.90;;;;;;5075160;28;20465;-78
2023/04/27 04:06:05;;;;;;;9.67;5.27;;;9.70;99.90;;;;;;5072406;28;20550;-78
2023/04/27 04:08:31;;;;;;;14.55;4.88;;;9.80;99.90;;;;;;5072162;28;20025;-78
2023/04/27 04:10:57;;;;;;;11.60;5.25;;;9.70;99.90;;;;;;5066642;28;20078;-79
2023/04/27 04:13:23;;;;;;;15.53;5.30;;;9.60;99.90;;;;;;5072844;28;20060;-79
2023/04/27 04:15:48;;;;;;;13.23;5.20;;;9.50;99.90;;;;;;5073466;28;20035;-78
2023/04/27 04:18:14;;;;;;;18.80;5.93;;;9.50;99.90;;;;;;5071443;28;20048;-78
2023/04/27 04:20:40;;;;;;;10.23;5.78;;;9.40;99.90;;;;;;5077982;28;20043;-78
2023/04/27 04:23:06;;;;;;;15.07;7.38;;;9.40;99.90;;;;;;5072920;28;20071;-78
2023/04/27 04:25:31;;;;;;;13.70;6.17;;;9.50;99.90;;;;;;5076538;28;20068;-79
2023/04/27 04:27:57;;;;;;;20.67;6.10;;;9.40;99.90;;;;;;5058394;28;20063;-77
2023/04/27 04:30:23;;;;;;;10.60;5.83;;;9.50;99.90;;;;;;5075665;28;20040;-77
2023/04/27 04:32:48;;;;;;;12.20;5.17;;;9.40;99.90;;;;;;5077808;28;20036;-77
2023/04/27 04:35:16;;;;;;;9.67;5.67;;;9.40;99.90;;;;;;5070223;28;20028;-78
2023/04/27 04:37:42;;;;;;;12.93;6.00;;;9.40;99.90;;;;;;5050700;28;20024;-78
2023/04/27 04:40:09;;;;;;;13.60;6.17;;;9.50;99.90;;;;;;5048520;28;20024;-78
2023/04/27 04:42:36;;;;;;;19.55;6.57;;;9.40;99.90;;;;;;5069246;28;20284;-78
2023/04/27 04:45:03;;;;;;;14.15;6.43;;;9.40;99.90;;;;;;5072198;28;20449;-78
2023/04/27 04:47:30;;;;;;;11.43;5.90;;;9.40;99.90;;;;;;5071014;28;20020;-78
2023/04/27 04:49:57;;;;;;;14.65;5.40;;;9.40;99.90;;;;;;5067371;28;20032;-78
2023/04/27 04:52:22;;;;;;;9.93;5.32;;;9.40;99.90;;;;;;5070066;28;20032;-78
2023/04/27 04:54:51;;;;;;;11.40;6.17;;;9.40;99.90;;;;;;5073516;28;20521;-76
2023/04/27 04:57:17;;;;;;;13.15;6.30;;;9.40;99.90;;;;;;5076999;28;20598;-77
2023/04/27 04:59:43;;;;;;;10.10;6.47;;;9.40;99.90;;;;;;5070178;28;20051;-77
2023/04/27 05:02:08;;;;;;;8.90;5.77;;;9.50;99.90;;;;;;5053872;28;20029;-77
2023/04/27 05:04:34;;;;;;;10.70;5.30;;;9.60;99.90;;;;;;5071024;28;20033;-77
2023/04/27 05:07:00;;;;;;;13.87;5.17;;;9.60;99.90;;;;;;5068771;28;20111;-77
2023/04/27 05:09:25;;;;;;;12.43;5.35;;;9.60;99.90;;;;;;5069400;28;20036;-78
2023/04/27 05:11:51;;;;;;;12.87;5.73;;;9.70;99.90;;;;;;5070887;28;20037;-80
2023/04/27 05:14:16;;;;;;;11.37;5.30;;;9.70;99.90;;;;;;5053435;28;20089;-77
2023/04/27 05:16:42;;;;;;;11.10;5.83;;;9.70;99.90;;;;;;5069729;28;20036;-78
2023/04/27 05:19:08;;;;;;;14.35;6.00;;;9.70;99.90;;;;;;5044640;28;20079;-77
2023/04/27 05:21:33;;;;;;;9.33;6.03;;;9.80;99.90;;;;;;5069056;28;20029;-79
2023/04/27 05:23:59;;;;;;;17.13;6.83;;;9.70;99.90;;;;;;5076205;28;20078;-78
2023/04/27 05:26:25;;;;;;;14.27;5.43;;;9.70;99.90;;;;;;5072676;28;20040;-78
2023/04/27 05:28:50;;;;;;;8.03;5.57;;;9.70;99.90;;;;;;5073083;28;20028;-79
2023/04/27 05:31:16;;;;;;;25.73;6.50;;;9.80;99.90;;;;;;5083478;28;20106;-78
2023/04/27 05:33:42;;;;;;;17.77;5.27;;;10.40;99.90;;;;;;5086891;28;20038;-78
2023/04/27 05:36:08;;;;;;;16.13;5.93;;;11.90;99.90;;;;;;5092978;28;20021;-79
2023/04/27 05:38:34;;;;;;;11.90;4.97;;;13.50;99.90;;;;;;5080784;28;20012;-78
2023/04/27 05:41:00;;;;;;;12.32;4.90;;;14.10;99.90;;;;;;5065676;28;20025;-77
2023/04/27 05:43:26;;;;;;;12.52;5.25;;;14.40;98.60;;;;;;5068769;28;20078;-77
2023/04/27 05:45:52;;;;;;;11.57;5.20;;;14.70;96.70;;;;;;5069632;28;20052;-78
2023/04/27 05:48:18;;;;;;;9.98;4.95;;;14.70;96.10;;;;;;5044711;28;20036;-78
2023/04/27 05:50:44;;;;;;;15.85;5.28;;;13.40;97.90;;;;;;5068724;28;20029;-76
2023/04/27 05:53:10;;;;;;;10.70;4.87;;;12.80;99.90;;;;;;5067916;28;20040;-77
2023/04/27 05:55:36;;;;;;;12.43;5.60;;;12.80;99.90;;;;;;5067392;28;20279;-77
2023/04/27 05:58:02;;;;;;;12.77;5.05;;;12.60;99.90;;;;;;5068012;28;20090;-78
2023/04/27 06:00:28;;;;;;;11.25;4.97;;;13.40;99.90;;;;;;5072672;28;20115;-78
2023/04/27 06:02:54;;;;;;;12.43;5.57;;;13.80;99.60;;;;;;5070081;28;20590;-78
2023/04/27 06:05:20;;;;;;;7.57;4.73;;;15.70;96.50;;;;;;5069070;28;20055;-78
2023/04/27 06:07:46;;;;;;;10.88;5.18;;;16.00;93.50;;;;;;5070660;28;20029;-77
2023/04/27 06:10:12;;;;;;;9.07;5.50;;;17.10;91.90;;;;;;5068130;28;20036;-77
2023/04/27 06:12:37;;;;;;;7.67;4.40;;;17.30;90.00;;;;;;5067084;28;20036;-76
2023/04/27 06:15:07;;;;;;;11.33;3.90;;;17.40;90.20;;;;;;5067302;28;20263;-79
2023/04/27 06:17:37;;;;;;;7.90;4.32;;;18.20;87.00;;;;;;5068835;28;20347;-78
2023/04/27 06:20:05;;;;;;;8.50;4.65;;;18.30;84.70;;;;;;5073688;28;20032;-77
2023/04/27 06:22:31;;;;;;;8.30;4.28;;;18.10;83.70;;;;;;5068495;28;20036;-80
2023/04/27 06:24:57;;;;;;;12.40;4.30;;;17.70;85.90;;;;;;5069441;28;20097;-77
2023/04/27 06:27:23;;;;;;;9.20;4.37;;;17.60;85.80;;;;;;5050624;28;20029;-78
2023/04/27 06:29:48;;;;;;;7.80;4.37;;;18.50;85.00;;;;;;5067251;28;20025;-76
2023/04/27 06:32:14;;;;;;;9.77;4.47;;;18.40;81.50;;;;;;5066090;28;20024;-76
2023/04/27 06:34:40;;;;;;;7.67;4.00;;;18.10;84.00;;;;;;5072128;28;20774;-84
2023/04/27 06:37:06;;;;;;;14.43;5.47;;;18.30;86.50;;;;;;5044595;28;20043;-73
2023/04/27 06:39:32;;;;;;;;;;;18.20;83.70;;;;;;5072938;28;20646;-75
2023/04/27 06:41:58;;;;;;;12.40;5.40;;;18.80;80.40;;;;;;5069012;28;20303;-76
2023/04/27 06:44:24;;;;;;;16.97;5.67;;;19.00;80.70;;;;;;5066905;28;20039;-74
2023/04/27 06:46:50;;;;;;;16.88;4.82;;;18.30;82.80;;;;;;5066339;28;20350;-79
2023/04/27 06:49:15;;;;;;;16.52;4.60;;;17.80;83.80;;;;;;5066762;28;20037;-76
2023/04/27 06:51:41;;;;;;;16.00;4.97;;;16.70;87.60;;;;;;5067298;28;20025;-75
2023/04/27 06:54:07;;;;;;;11.80;4.43;;;16.60;88.90;;;;;;5068049;28;20040;-76
2023/04/27 06:56:32;;;;;;;14.32;4.70;;;17.40;86.00;;;;;;5067186;28;20027;-74
2023/04/27 06:58:58;;;;;;;12.80;4.17;;;17.70;84.70;;;;;;5065676;28;20064;-73
2023/04/27 07:01:24;;;;;;;10.47;5.00;;;18.60;83.40;;;;;;5069030;28;20518;-76
2023/04/27 07:03:49;;;;;;;9.75;5.13;;;18.50;81.50;;;;;;5071648;28;20020;-78
2023/04/27 07:06:15;;;;;;;10.43;4.63;;;19.50;79.70;;;;;;5075691;28;20452;-75
2023/04/27 07:08:41;;;;;;;11.90;4.80;;;19.30;79.90;;;;;;5070520;28;20500;-75
2023/04/27 07:11:07;;;;;;;17.20;5.53;;;19.90;77.20;;;;;;5070142;28;20039;-76
2023/04/27 07:13:33;;;;;;;7.00;4.03;;;19.10;80.90;;;;;;5075238;28;20031;-75
2023/04/27 07:15:59;;;;;;;11.57;4.27;;;19.50;79.60;;;;;;5074276;28;20032;-77
2023/04/27 07:18:27;;;;;;;8.60;4.88;;;20.40;75.00;;;;;;5081637;28;20062;-77
2023/04/27 07:20:53;;;;;;;8.48;4.47;;;19.50;77.40;;;;;;5094649;28;20031;-75
2023/04/27 07:23:19;;;;;;;;;;;19.90;77.50;;;;;;5080786;28;20115;-76
2023/04/27 07:25:45;;;;;;;8.23;4.60;;;21.20;74.50;;;;;;5067785;28;20011;-74
2023/04/27 07:28:11;;;;;;;10.52;4.60;;;21.30;74.20;;;;;;5065088;28;20488;-77
2023/04/27 07:30:37;;;;;;;;;;;21.60;72.70;;;;;;5064054;28;20051;-75
2023/04/27 07:33:04;;;;;;;7.07;4.55;;;21.70;72.90;;;;;;5067162;28;19912;-75
2023/04/27 07:35:30;;;;;;;9.13;4.32;;;21.40;75.30;;;;;;5058716;28;20082;-75
2023/04/27 07:37:56;;;;;;;6.55;4.50;;;21.20;74.50;;;;;;5067988;28;20036;-75
2023/04/27 07:40:23;;;;;;;8.90;4.95;;;22.40;72.20;;;;;;5068420;28;20441;-78
2023/04/27 07:42:49;;;;;;;5.70;3.75;;;22.90;70.30;;;;;;5067588;28;20036;-76
2023/04/27 07:45:18;;;;;;;7.35;4.10;;;23.10;69.40;;;;;;5067112;28;20147;-75
2023/04/27 07:47:43;;;;;;;8.60;4.63;;;22.50;71.40;;;;;;5065102;28;20500;-75
2023/04/27 07:50:09;;;;;;;8.05;4.50;;;21.10;74.40;;;;;;5066240;28;20039;-76
2023/04/27 07:52:36;;;;;;;11.25;3.92;;;20.70;76.70;;;;;;5050100;28;20033;-76
2023/04/27 07:55:02;;;;;;;7.32;4.55;;;21.70;75.90;;;;;;5064545;28;20032;-76
2023/04/27 07:57:28;;;;;;;19.30;4.38;;;22.80;72.10;;;;;;5067781;28;20028;-78
2023/04/27 07:59:54;;;;;;;9.45;4.20;;;25.00;66.40;;;;;;5062663;28;20502;-74
2023/04/27 08:02:19;;;;;;;9.90;4.40;;;25.00;64.50;;;;;;5065106;28;20039;-75
2023/04/27 08:04:45;;;;;;;7.47;4.05;;;25.20;63.60;;;;;;5062285;28;20041;-77
2023/04/27 08:07:11;;;;;;;6.32;4.57;;;25.10;64.20;;;;;;5054934;28;20033;-78
2023/04/27 08:09:36;;;;;;;9.50;3.63;;;24.70;63.00;;;;;;5049788;28;20039;-75
2023/04/27 08:12:02;;;;;;;11.47;4.53;;;24.70;65.60;;;;;;5064306;28;20679;-76
2023/04/27 08:14:28;;;;;;;9.02;4.13;;;26.50;62.00;;;;;;5067153;28;20020;-78
2023/04/27 08:16:54;;;;;;;5.78;4.15;;;27.10;59.70;;;;;;5066887;28;20037;-79
2023/04/27 08:19:19;;;;;;;10.85;4.35;;;27.30;60.40;;;;;;5062621;28;20412;-76
2023/04/27 08:21:45;;;;;;;6.78;4.03;;;28.20;58.70;;;;;;5064920;28;20095;-75
2023/04/27 08:24:11;;;;;;;7.47;3.50;;;26.10;59.60;;;;;;5048292;28;20037;-75
2023/04/27 08:26:37;;;;;;;6.25;3.20;;;25.40;60.10;;;;;;5066212;28;20055;-77
2023/04/27 08:29:02;;;;;;;5.63;3.47;;;25.20;60.30;;;;;;5065282;28;20059;-76
2023/04/27 08:31:28;;;;;;;34.13;11.13;;;26.30;58.50;;;;;;5047038;28;20039;-76
2023/04/27 08:33:54;;;;;;;19.17;6.68;;;27.70;60.20;;;;;;5065574;28;20098;-76
2023/04/27 08:36:23;;;;;;;6.40;3.90;;;28.20;58.10;;;;;;5048109;28;20427;-74
2023/04/27 08:38:49;;;;;;;14.52;6.35;;;27.80;58.80;;;;;;5062272;28;20032;-74
2023/04/27 08:41:19;;;;;;;;;;;26.80;59.60;;;;;;5066458;28;20029;-79
2023/04/27 08:43:45;;;;;;;15.20;6.70;;;29.00;57.30;;;;;;5049344;28;19916;-78
2023/04/27 08:46:11;;;;;;;25.27;8.07;;;27.60;56.20;;;;;;5065515;28;20523;-77
2023/04/27 08:48:36;;;;;;;16.52;6.43;;;28.80;55.70;;;;;;5062127;28;20029;-77
2023/04/27 08:51:07;;;;;;;14.05;4.25;;;28.50;57.70;;;;;;5065015;28;20058;-75
2023/04/27 08:53:32;;;;;;;8.70;2.70;;;28.00;55.70;;;;;;5065233;28;20078;-80
2023/04/27 08:55:58;;;;;;;10.73;4.05;;;27.20;56.60;;;;;;5063559;28;20504;-79
2023/04/27 08:58:38;;;;;;;9.13;2.55;;;27.90;58.30;;;;;;5070893;28;20097;-77
2023/04/27 09:01:07;;;;;;;10.43;4.38;;;29.00;54.70;;;;;;5070585;28;20055;-75
2023/04/27 09:03:33;;;;;;;10.20;3.00;;;30.00;55.50;;;;;;5087554;28;20503;-75
2023/04/27 09:06:03;;;;;;;4.50;2.63;;;30.10;54.60;;;;;;5067675;28;20036;-75
2023/04/27 09:08:47;;;;;;;12.68;2.90;;;29.30;52.60;;;;;;5063757;28;20040;-72
2023/04/27 09:11:14;;;;;;;12.95;4.72;;;30.40;54.70;;;;;;5065472;28;20043;-74
2023/04/27 09:13:43;;;;;;;7.68;3.70;;;31.30;54.20;;;;;;5063940;28;20465;-72
2023/04/27 09:16:11;;;;;;;5.88;2.85;;;32.70;53.50;;;;;;5047697;28;20106;-74
2023/04/27 09:18:41;;;;;;;4.38;2.97;;;32.30;51.70;;;;;;5068045;28;20044;-78
2023/04/27 09:21:06;;;;;;;7.43;1.95;;;32.00;51.60;;;;;;5065660;28;20028;-76
2023/04/27 09:23:33;;;;;;;;;;;30.90;49.70;;;;;;5064137;28;20574;-75
2023/04/27 09:26:01;;;;;;;5.67;1.90;;;31.10;53.80;;;;;;5062727;28;19942;-75
2023/04/27 09:28:28;;;;;;;3.53;2.03;;;30.50;51.80;;;;;;5065480;28;20072;-74
2023/04/27 09:30:55;;;;;;;4.88;2.13;;;31.30;51.90;;;;;;5063167;28;20091;-76
2023/04/27 09:33:28;;;;;;;7.53;2.42;;;33.10;52.10;;;;;;5063221;28;20498;-73
2023/04/27 09:35:56;;;;;;;4.95;1.50;;;33.30;50.90;;;;;;5061757;28;20054;-73
2023/04/27 09:38:22;;;;;;;2.30;1.90;;;30.40;49.40;;;;;;5060309;28;20024;-74
2023/04/27 09:40:49;;;;;;;3.95;1.92;;;30.30;52.90;;;;;;5062330;28;20050;-73
2023/04/27 09:43:15;;;;;;;3.33;1.77;;;28.30;54.20;;;;;;5062285;28;20032;-76
2023/04/27 09:45:41;;;;;;;;;;;28.90;55.20;;;;;;5060657;28;20047;-72
2023/04/27 09:48:07;;;;;;;5.75;2.50;;;28.40;53.40;;;;;;5063029;28;20358;-75
2023/04/27 09:50:40;;;;;;;3.53;2.10;;;27.00;55.80;;;;;;5044043;28;20039;-75
2023/04/27 09:53:08;;;;;;;4.30;2.45;;;26.80;56.90;;;;;;5061319;28;20036;-74
2023/04/27 09:55:46;;;;;;;4.53;2.33;;;27.20;56.10;;;;;;5061535;28;20082;-74
2023/04/27 09:58:49;;;;;;;3.40;1.80;;;26.70;58.20;;;;;;5064739;28;20054;-73
2023/04/27 10:01:33;;;;;;;6.50;2.30;;;26.60;56.70;;;;;;5065884;28;20447;-75
2023/04/27 10:04:16;;;;;;;6.25;1.60;;;26.10;57.30;;;;;;5063967;28;20404;-79
2023/04/27 10:06:51;;;;;;;3.15;1.90;;;26.10;57.80;;;;;;5063541;28;20032;-74
2023/04/27 10:09:22;;;;;;;8.52;2.13;;;26.00;57.00;;;;;;5063432;28;20020;-75
2023/04/27 10:11:48;;;;;;;4.28;2.10;;;25.90;55.20;;;;;;5063638;28;20078;-74
2023/04/27 10:14:22;;;;;;;5.07;2.30;;;25.70;57.50;;;;;;5061985;28;20096;-74
2023/04/27 10:16:57;;;;;;;7.20;3.22;;;25.90;58.50;;;;;;5062348;28;20085;-74
2023/04/27 10:19:24;;;;;;;5.35;1.98;;;26.30;56.20;;;;;;5061430;28;20040;-74
2023/04/27 10:21:51;;;;;;;11.20;4.00;;;26.70;55.50;;;;;;5062614;28;20024;-75
2023/04/27 10:24:17;;;;;;;3.33;1.90;;;26.50;57.10;;;;;;5061395;28;20702;-77
2023/04/27 10:26:47;;;;;;;10.35;3.20;;;27.60;56.30;;;;;;5045058;28;20094;-78
2023/04/27 10:29:15;;;;;;;6.90;2.63;;;26.30;53.50;;;;;;5062508;28;20037;-77
2023/04/27 10:31:46;;;;;;;7.78;3.15;;;25.60;58.30;;;;;;5065782;28;20024;-75
2023/04/27 10:34:16;;;;;;;8.57;3.88;;;25.80;57.80;;;;;;5063956;28;20032;-74
2023/04/27 10:36:42;;;;;;;8.00;2.80;;;26.00;55.50;;;;;;5048205;28;20399;-74
2023/04/27 10:39:16;;;;;;;14.55;5.35;;;26.80;54.60;;;;;;5069345;28;20031;-76
2023/04/27 10:41:52;;;;;;;8.93;3.90;;;27.10;58.00;;;;;;5067554;28;20040;-76
2023/04/27 10:44:27;;;;;;;6.93;2.50;;;28.00;56.50;;;;;;5079298;28;20020;-74
2023/04/27 10:46:55;;;;;;;5.60;2.67;;;26.20;57.30;;;;;;5068513;28;20500;-75
2023/04/27 10:49:22;;;;;;;5.90;2.30;;;25.60;58.10;;;;;;5064077;28;20444;-74
2023/04/27 10:51:49;;;;;;;4.00;2.13;;;25.90;58.50;;;;;;5062838;28;20031;-76
2023/04/27 10:54:15;;;;;;;8.73;2.78;;;25.70;57.90;;;;;;5061984;28;20407;-75
2023/04/27 10:56:41;;;;;;;6.97;2.60;;;25.40;57.80;;;;;;5063554;28;20020;-77
2023/04/27 10:59:08;;;;;;;8.13;3.42;;;25.50;59.50;;;;;;5062974;28;20400;-78
2023/04/27 11:01:34;;;;;;;3.72;2.40;;;25.60;57.90;;;;;;5064093;28;20027;-74
2023/04/27 11:04:01;;;;;;;6.07;2.20;;;25.50;59.00;;;;;;5065733;28;20067;-73
2023/04/27 11:06:29;;;;;;;8.70;3.25;;;25.40;58.30;;;;;;5064406;28;20032;-73
2023/04/27 11:08:55;;;;;;;3.25;1.60;;;25.50;57.30;;;;;;5063530;28;20151;-74
2023/04/27 11:11:21;;;;;;;;;;;25.20;56.80;;;;;;5063548;28;20028;-73
2023/04/27 11:13:54;;;;;;;1.50;0.98;;;25.20;57.00;;;;;;5062728;28;19912;-73
2023/04/27 11:16:20;;;;;;;5.07;1.70;;;25.30;54.90;;;;;;5064598;28;20047;-73
2023/04/27 11:18:45;;;;;;;3.90;2.50;;;25.20;56.60;;;;;;5059408;28;20116;-74
2023/04/27 11:21:12;;;;;;;6.93;2.30;;;25.30;57.80;;;;;;5062764;28;20037;-76
2023/04/27 11:23:39;;;;;;;7.18;2.50;;;25.60;58.10;;;;;;5064144;28;20025;-74
2023/04/27 11:26:08;;;;;;;6.32;3.58;;;25.40;59.00;;;;;;5062224;28;20032;-74
2023/04/27 11:28:34;;;;;;;1.92;1.60;;;25.60;57.30;;;;;;5064361;28;20024;-73
2023/04/27 11:31:00;;;;;;;3.88;1.95;;;25.50;57.90;;;;;;5063035;28;20570;-73
2023/04/27 11:33:29;;;;;;;5.75;1.45;;;25.40;58.10;;;;;;5062023;28;20032;-74
2023/04/27 11:35:55;;;;;;;6.82;2.80;;;25.60;57.80;;;;;;5061354;28;20111;-74
2023/04/27 11:38:21;;;;;;;7.10;1.20;;;25.60;56.90;;;;;;5045331;28;20039;-73
2023/04/27 11:41:07;;;;;;;2.55;1.40;;;25.30;52.90;;;;;;5063412;28;20027;-74
2023/04/27 11:43:33;;;;;;;5.97;1.70;;;25.00;57.70;;;;;;5044008;28;20083;-75
2023/04/27 11:46:03;;;;;;;2.55;1.48;;;24.90;56.70;;;;;;5045049;28;20051;-77
2023/04/27 11:48:29;;;;;;;3.92;2.28;;;25.20;57.90;;;;;;5061178;28;20032;-74
2023/04/27 11:51:00;;;;;;;3.10;1.85;;;25.90;58.30;;;;;;5062478;28;20883;-73
2023/04/27 11:53:31;;;;;;;5.18;2.22;;;25.90;56.40;;;;;;5062427;28;20504;-75
2023/04/27 11:56:00;;;;;;;2.67;1.67;;;25.90;56.50;;;;;;5067069;28;20110;-76
2023/04/27 11:58:28;;;;;;;3.53;1.60;;;25.50;57.40;;;;;;5064492;28;20038;-74
2023/04/27 12:00:57;;;;;;;3.38;1.40;;;25.10;54.90;;;;;;5062985;28;20028;-74
2023/04/27 12:03:24;;;;;;;7.40;2.13;;;24.60;55.30;;;;;;5065369;28;20029;-77
2023/04/27 12:05:51;;;;;;;5.47;2.30;;;24.70;57.60;;;;;;5064346;28;20036;-79
2023/04/27 12:08:17;;;;;;;4.05;2.33;;;25.00;59.50;;;;;;5062862;28;20048;-74
2023/04/27 12:10:44;;;;;;;6.85;2.10;;;25.00;58.40;;;;;;5062894;28;20041;-73
2023/04/27 12:13:11;;;;;;;7.95;3.10;;;25.00;58.30;;;;;;5064466;28;20025;-76
2023/04/27 12:15:37;;;;;;;4.80;1.65;;;24.70;56.00;;;;;;5067253;28;20115;-78
2023/04/27 12:18:02;;;;;;;6.40;2.10;;;24.60;59.60;;;;;;5061783;28;20111;-78
2023/04/27 12:20:28;;;;;;;6.38;1.63;;;24.50;57.20;;;;;;5066884;28;20036;-78
2023/04/27 12:22:54;;;;;;;3.57;2.27;;;24.20;56.10;;;;;;5074029;28;20020;-76
2023/04/27 12:25:20;;;;;;;2.90;2.05;;;24.40;59.40;;;;;;5083489;28;20277;-76
2023/04/27 12:27:47;;;;;;;5.15;1.90;;;24.80;58.60;;;;;;5081541;28;20041;-78
2023/04/27 12:30:13;;;;;;;4.22;1.88;;;25.10;59.80;;;;;;5050095;28;20040;-74
2023/04/27 12:32:39;;;;;;;4.82;1.70;;;25.00;57.20;;;;;;5064692;28;20429;-80
2023/04/27 12:35:09;;;;;;;2.63;1.27;;;24.90;59.90;;;;;;5081559;28;20044;-76
2023/04/27 12:37:35;;;;;;;4.88;1.52;;;24.70;58.20;;;;;;5064825;28;20400;-75
2023/04/27 12:40:00;;;;;;;4.53;1.75;;;24.50;57.20;;;;;;5064231;28;20036;-73
2023/04/27 12:42:26;;;;;;;22.45;5.05;;;24.40;59.60;;;;;;5064374;28;20811;-75
2023/04/27 12:44:52;;;;;;;19.00;4.70;;;24.50;56.40;;;;;;5063865;28;20103;-75